Time;durP1;ratioP1;P1;durP2;ratioP2;P2;SDS_P1;SDS_P2;PMS_P1;PMS_P2;Temp;Humidity;BMP_temperature;BMP_pressure;BME280_temperature;BME280_humidity;BME280_pressure;Samples;Min_cycle;Max_cycle;Signal;HPM_P1;HPM_P2
2021/07/02 00:02:01;;;;;;;21.85;13.52;;;13.70;99.90;;;;;;5087274;28;20029;-78
2021/07/02 00:04:27;;;;;;;22.20;13.25;;;13.80;99.90;;;;;;5042635;28;20121;-78
2021/07/02 00:06:53;;;;;;;21.67;13.73;;;13.80;99.90;;;;;;5059655;28;20648;-77
2021/07/02 00:09:18;;;;;;;26.33;15.15;;;13.90;99.90;;;;;;5054643;28;20218;-77
2021/07/02 00:11:44;;;;;;;19.90;13.60;;;13.90;99.90;;;;;;5040738;28;20016;-78
2021/07/02 00:14:09;;;;;;;21.60;13.50;;;13.90;99.90;;;;;;5059840;28;20056;-77
2021/07/02 00:16:35;;;;;;;23.73;13.43;;;14.10;99.90;;;;;;5047867;28;20025;-77
2021/07/02 00:19:01;;;;;;;21.33;13.50;;;14.00;99.90;;;;;;5064983;28;20028;-77
2021/07/02 00:21:27;;;;;;;25.25;14.95;;;14.10;99.90;;;;;;5041211;28;20566;-77
2021/07/02 00:23:52;;;;;;;19.65;12.73;;;14.00;99.90;;;;;;5059849;28;20049;-77
2021/07/02 00:26:18;;;;;;;21.63;13.52;;;13.90;99.90;;;;;;5053991;28;20039;-78
2021/07/02 00:28:43;;;;;;;32.90;16.27;;;14.00;99.90;;;;;;5072896;28;20020;-77
2021/07/02 00:31:09;;;;;;;27.98;16.15;;;14.00;99.90;;;;;;5058622;28;20052;-77
2021/07/02 00:33:35;;;;;;;32.00;16.73;;;13.80;99.90;;;;;;5069909;28;20082;-77
2021/07/02 00:36:00;;;;;;;27.00;14.93;;;13.70;99.90;;;;;;5047860;28;20052;-77
2021/07/02 00:38:26;;;;;;;30.20;16.85;;;13.70;99.90;;;;;;5065558;28;20073;-78
2021/07/02 00:40:52;;;;;;;27.80;14.52;;;13.70;99.90;;;;;;5042843;28;20044;-79
2021/07/02 00:43:18;;;;;;;25.20;14.55;;;13.60;99.90;;;;;;5043097;28;20024;-79
2021/07/02 00:45:43;;;;;;;33.08;16.20;;;13.50;99.90;;;;;;5049201;28;20605;-80
2021/07/02 00:48:09;;;;;;;30.67;15.43;;;13.50;99.90;;;;;;5048844;28;20020;-80
2021/07/02 00:50:34;;;;;;;30.02;17.25;;;13.40;99.90;;;;;;5059731;28;20104;-78
2021/07/02 00:53:01;;;;;;;34.10;16.40;;;13.40;99.90;;;;;;5041904;28;20029;-77
2021/07/02 00:55:27;;;;;;;36.30;16.33;;;13.40;99.90;;;;;;5064849;28;20035;-77
2021/07/02 00:57:52;;;;;;;32.38;17.20;;;13.40;99.90;;;;;;5064575;28;20036;-77
2021/07/02 01:00:18;;;;;;;32.13;15.63;;;13.30;99.90;;;;;;5040235;28;20017;-77
2021/07/02 01:02:44;;;;;;;29.33;15.88;;;13.30;99.90;;;;;;5058777;28;20093;-77
2021/07/02 01:05:10;;;;;;;31.67;16.60;;;13.30;99.90;;;;;;5064987;28;20100;-77
2021/07/02 01:07:36;;;;;;;32.15;15.98;;;13.40;99.90;;;;;;5064631;28;20507;-77
2021/07/02 01:10:02;;;;;;;32.50;17.52;;;13.30;99.90;;;;;;5037883;28;20029;-77
2021/07/02 01:12:29;;;;;;;31.20;15.75;;;13.40;99.90;;;;;;5055590;28;20053;-77
2021/07/02 01:14:54;;;;;;;38.42;18.83;;;13.30;99.90;;;;;;5068833;28;20068;-76
2021/07/02 01:17:20;;;;;;;38.20;18.05;;;13.40;99.90;;;;;;5068334;28;20064;-77
2021/07/02 01:19:52;;;;;;;33.97;16.48;;;13.30;99.90;;;;;;5044268;28;20025;-77
2021/07/02 01:22:25;;;;;;;38.70;17.65;;;13.40;99.90;;;;;;5062152;28;20036;-77
2021/07/02 01:24:55;;;;;;;37.15;17.50;;;13.40;99.90;;;;;;5052003;28;20043;-77
2021/07/02 01:27:21;;;;;;;28.77;16.63;;;13.40;99.90;;;;;;5058670;28;20115;-77
2021/07/02 01:29:48;;;;;;;30.98;17.10;;;13.30;99.90;;;;;;5068118;28;20052;-77
2021/07/02 01:32:18;;;;;;;33.95;17.10;;;13.30;99.90;;;;;;5069577;28;20025;-77
2021/07/02 01:34:43;;;;;;;30.88;16.63;;;13.30;99.90;;;;;;5064664;28;20032;-77
2021/07/02 01:37:10;;;;;;;39.10;17.40;;;13.40;99.90;;;;;;5044377;28;20109;-77
2021/07/02 01:39:39;;;;;;;32.13;17.77;;;13.30;99.90;;;;;;5066349;28;20017;-77
2021/07/02 01:42:08;;;;;;;36.13;17.65;;;13.30;99.90;;;;;;5072161;28;20071;-77
2021/07/02 01:44:36;;;;;;;35.13;18.35;;;13.40;99.90;;;;;;5065100;28;20076;-77
2021/07/02 01:47:02;;;;;;;32.25;17.45;;;13.40;99.90;;;;;;5054700;28;20024;-77
2021/07/02 01:49:27;;;;;;;26.85;16.45;;;13.30;99.90;;;;;;5046487;28;20032;-77
2021/07/02 01:51:53;;;;;;;29.30;16.83;;;13.30;99.90;;;;;;5050267;28;20017;-78
2021/07/02 01:54:19;;;;;;;29.17;16.65;;;13.40;99.90;;;;;;5066076;28;20028;-78
2021/07/02 01:56:50;;;;;;;31.92;17.75;;;13.50;99.90;;;;;;5044589;28;20478;-79
2021/07/02 01:59:19;;;;;;;37.97;18.35;;;13.50;99.90;;;;;;5064110;28;20036;-78
2021/07/02 02:01:47;;;;;;;39.70;18.27;;;13.50;99.90;;;;;;5051247;28;20031;-77
2021/07/02 02:04:13;;;;;;;35.83;19.02;;;13.50;99.90;;;;;;5066753;28;20490;-77
2021/07/02 02:06:39;;;;;;;38.13;18.52;;;13.50;99.90;;;;;;5061382;28;20030;-77
2021/07/02 02:09:06;;;;;;;37.53;17.50;;;13.50;99.90;;;;;;5062570;28;20033;-78
2021/07/02 02:11:32;;;;;;;27.10;15.95;;;13.60;99.90;;;;;;5051039;28;20029;-77
2021/07/02 02:13:58;;;;;;;38.80;18.13;;;13.60;99.90;;;;;;5067525;28;20031;-77
2021/07/02 02:16:24;;;;;;;35.30;17.83;;;13.60;99.90;;;;;;5061749;28;20032;-77
2021/07/02 02:18:50;;;;;;;29.67;15.75;;;13.60;99.90;;;;;;5045976;28;20034;-78
2021/07/02 02:21:16;;;;;;;33.35;18.15;;;13.40;99.90;;;;;;5068106;28;20021;-76
2021/07/02 02:23:41;;;;;;;35.88;18.38;;;13.50;99.90;;;;;;5048194;28;20021;-77
2021/07/02 02:26:07;;;;;;;34.72;17.77;;;13.50;99.90;;;;;;5051363;28;20035;-77
2021/07/02 02:28:32;;;;;;;42.05;19.23;;;13.50;99.90;;;;;;5075770;28;20044;-77
2021/07/02 02:30:58;;;;;;;38.58;19.27;;;13.50;99.90;;;;;;5061329;28;20036;-77
2021/07/02 02:33:24;;;;;;;40.08;18.70;;;13.50;99.90;;;;;;5063267;28;20036;-77
2021/07/02 02:35:49;;;;;;;33.38;17.75;;;13.50;99.90;;;;;;5067193;28;20021;-76
2021/07/02 02:38:15;;;;;;;33.22;18.58;;;13.50;99.90;;;;;;5065002;28;20025;-77
2021/07/02 02:40:40;;;;;;;39.85;20.33;;;13.40;99.90;;;;;;5042516;28;20390;-77
2021/07/02 02:43:06;;;;;;;38.88;19.65;;;13.40;99.90;;;;;;5045724;28;20025;-76
2021/07/02 02:45:31;;;;;;;35.90;18.67;;;13.40;99.90;;;;;;5066918;28;20028;-78
2021/07/02 02:47:57;;;;;;;31.88;17.67;;;13.30;99.90;;;;;;5064503;28;20025;-77
2021/07/02 02:50:22;;;;;;;33.90;18.10;;;13.30;99.90;;;;;;5042479;28;20024;-76
2021/07/02 02:52:48;;;;;;;34.67;18.15;;;13.30;99.90;;;;;;5074116;28;20082;-76
2021/07/02 02:55:14;;;;;;;29.88;18.17;;;13.20;99.90;;;;;;5060271;28;20138;-76
2021/07/02 02:57:39;;;;;;;34.05;19.45;;;13.20;99.90;;;;;;5045480;28;20028;-75
2021/07/02 03:00:07;;;;;;;31.05;18.98;;;13.20;99.90;;;;;;5067104;28;20079;-75
2021/07/02 03:02:33;;;;;;;35.10;19.23;;;13.10;99.90;;;;;;5063594;28;20393;-75
2021/07/02 03:04:58;;;;;;;33.60;18.90;;;13.10;99.90;;;;;;5059632;28;20489;-76
2021/07/02 03:07:24;;;;;;;34.33;19.38;;;13.10;99.90;;;;;;5065063;28;20029;-76
2021/07/02 03:09:49;;;;;;;29.92;17.52;;;13.10;99.90;;;;;;5048845;28;20059;-76
2021/07/02 03:12:15;;;;;;;31.40;18.38;;;13.10;99.90;;;;;;5053406;28;20402;-76
2021/07/02 03:14:40;;;;;;;35.03;19.25;;;13.00;99.90;;;;;;5048521;28;20812;-76
2021/07/02 03:17:06;;;;;;;30.52;16.48;;;13.10;99.90;;;;;;5062802;28;20394;-75
2021/07/02 03:19:32;;;;;;;29.00;16.50;;;13.10;99.90;;;;;;5059720;28;20013;-76
2021/07/02 03:21:57;;;;;;;25.38;16.45;;;13.10;99.90;;;;;;5063591;28;20124;-77
2021/07/02 03:24:23;;;;;;;26.98;16.85;;;13.00;99.90;;;;;;5048431;28;20017;-77
2021/07/02 03:26:48;;;;;;;30.98;16.95;;;13.00;99.90;;;;;;5053461;28;20441;-77
2021/07/02 03:29:14;;;;;;;25.73;15.68;;;13.00;99.90;;;;;;5052381;28;20035;-76
2021/07/02 03:31:39;;;;;;;28.13;17.30;;;13.00;99.90;;;;;;5062815;28;20115;-75
2021/07/02 03:34:05;;;;;;;25.20;16.00;;;12.90;99.90;;;;;;5059457;28;20032;-75
2021/07/02 03:36:32;;;;;;;30.67;17.38;;;12.90;99.90;;;;;;5072551;28;20021;-76
2021/07/02 03:38:58;;;;;;;29.80;16.77;;;12.90;99.90;;;;;;5059295;28;20475;-77
2021/07/02 03:41:23;;;;;;;29.67;17.23;;;12.90;99.90;;;;;;5062207;28;20033;-77
2021/07/02 03:43:49;;;;;;;27.55;16.73;;;12.80;99.90;;;;;;5049072;28;20024;-77
2021/07/02 03:46:15;;;;;;;25.90;15.93;;;12.80;99.90;;;;;;5045408;28;20445;-76
2021/07/02 03:48:40;;;;;;;29.48;17.75;;;12.90;99.90;;;;;;5059178;28;20497;-76
2021/07/02 03:51:06;;;;;;;29.27;17.42;;;12.80;99.90;;;;;;5062602;28;20498;-76
2021/07/02 03:53:31;;;;;;;32.55;17.75;;;12.90;99.90;;;;;;5065974;28;20493;-77
2021/07/02 03:55:57;;;;;;;32.75;17.13;;;12.80;99.90;;;;;;5044789;28;20115;-76
2021/07/02 03:58:22;;;;;;;29.67;17.77;;;12.80;99.90;;;;;;5041150;28;20040;-75
2021/07/02 04:00:48;;;;;;;24.13;15.88;;;12.80;99.90;;;;;;5062696;28;20479;-75
2021/07/02 04:03:15;;;;;;;30.02;17.73;;;12.80;99.90;;;;;;5065703;28;20036;-75
2021/07/02 04:05:44;;;;;;;29.05;17.75;;;12.70;99.90;;;;;;5043748;28;20029;-74
2021/07/02 04:08:10;;;;;;;32.08;19.48;;;12.70;99.90;;;;;;5058867;28;20034;-76
2021/07/02 04:10:36;;;;;;;31.33;18.23;;;12.80;99.90;;;;;;5062168;28;20036;-76
2021/07/02 04:13:02;;;;;;;37.80;19.17;;;12.80;99.90;;;;;;5068798;28;20036;-76
2021/07/02 04:15:27;;;;;;;33.72;19.65;;;12.90;99.90;;;;;;5044373;28;20036;-76
2021/07/02 04:17:53;;;;;;;34.42;19.52;;;12.80;99.90;;;;;;5038207;28;20025;-76
2021/07/02 04:20:18;;;;;;;41.75;21.25;;;12.70;99.90;;;;;;5044387;28;20541;-76
2021/07/02 04:22:44;;;;;;;32.17;19.48;;;12.70;99.90;;;;;;5065524;28;20032;-77
2021/07/02 04:25:10;;;;;;;40.38;21.38;;;12.70;99.90;;;;;;5043952;28;20031;-75
2021/07/02 04:27:36;;;;;;;39.53;20.40;;;12.80;99.90;;;;;;5054033;28;20399;-75
2021/07/02 04:30:03;;;;;;;35.05;19.92;;;12.80;99.90;;;;;;5043754;28;20036;-77
2021/07/02 04:32:29;;;;;;;35.83;20.80;;;12.70;99.90;;;;;;5053270;28;20033;-78
2021/07/02 04:34:55;;;;;;;35.83;20.58;;;12.70;99.90;;;;;;5044781;28;20056;-76
2021/07/02 04:37:20;;;;;;;37.50;20.15;;;12.70;99.90;;;;;;5068960;28;20029;-78
2021/07/02 04:39:46;;;;;;;35.55;19.17;;;12.80;99.90;;;;;;5046687;28;20063;-76
2021/07/02 04:42:11;;;;;;;36.60;20.65;;;12.70;99.90;;;;;;5056598;28;20024;-76
2021/07/02 04:44:38;;;;;;;37.80;21.75;;;12.70;99.90;;;;;;5062584;28;20535;-76
2021/07/02 04:47:04;;;;;;;34.17;20.73;;;12.70;99.90;;;;;;5059554;28;20111;-77
2021/07/02 04:49:31;;;;;;;42.85;22.15;;;12.80;99.90;;;;;;5045450;28;20064;-77
2021/07/02 04:51:56;;;;;;;43.15;22.63;;;12.80;99.90;;;;;;5048907;28;20028;-76
2021/07/02 04:54:22;;;;;;;40.25;21.63;;;12.80;99.90;;;;;;5063238;28;20032;-78
2021/07/02 04:56:47;;;;;;;45.72;23.08;;;12.70;99.90;;;;;;5042139;28;20032;-76
2021/07/02 04:59:15;;;;;;;46.22;23.02;;;12.80;99.90;;;;;;5062440;28;20067;-77
2021/07/02 05:01:41;;;;;;;39.40;21.08;;;12.70;99.90;;;;;;5047438;28;20055;-77
2021/07/02 05:04:07;;;;;;;44.63;22.33;;;12.70;99.90;;;;;;5061577;28;20020;-77
2021/07/02 05:06:33;;;;;;;38.45;21.35;;;12.80;99.90;;;;;;5040908;28;20032;-75
2021/07/02 05:08:59;;;;;;;45.72;22.77;;;12.80;99.90;;;;;;5044045;28;20021;-76
2021/07/02 05:11:25;;;;;;;35.15;21.63;;;12.80;99.90;;;;;;5047657;28;20074;-76
2021/07/02 05:13:51;;;;;;;43.10;23.08;;;12.80;99.90;;;;;;5061322;28;20111;-77
2021/07/02 05:16:16;;;;;;;43.13;23.70;;;12.90;99.90;;;;;;5054849;28;20025;-76
2021/07/02 05:18:42;;;;;;;41.15;21.85;;;12.90;99.90;;;;;;5060880;28;20574;-77
2021/07/02 05:21:07;;;;;;;37.60;21.92;;;12.90;99.90;;;;;;5058211;28;20116;-76
2021/07/02 05:23:33;;;;;;;42.88;22.73;;;12.80;99.90;;;;;;5062042;28;20022;-77
2021/07/02 05:25:59;;;;;;;37.25;21.88;;;12.80;99.90;;;;;;5062686;28;20051;-78
2021/07/02 05:28:25;;;;;;;39.55;23.23;;;12.80;99.90;;;;;;5082057;28;20021;-78
2021/07/02 05:30:50;;;;;;;45.10;24.52;;;12.80;99.90;;;;;;5040641;28;20446;-75
2021/07/02 05:33:16;;;;;;;44.88;24.13;;;12.80;99.90;;;;;;5061777;28;20031;-76
2021/07/02 05:35:42;;;;;;;37.78;22.80;;;12.80;99.90;;;;;;5064617;28;20052;-77
2021/07/02 05:38:07;;;;;;;46.95;24.77;;;12.70;99.90;;;;;;5062217;28;20064;-76
2021/07/02 05:40:33;;;;;;;42.33;24.15;;;12.70;99.90;;;;;;5057815;28;20020;-75
2021/07/02 05:42:58;;;;;;;36.65;21.20;;;12.80;99.90;;;;;;5043005;28;20100;-76
2021/07/02 05:45:24;;;;;;;48.83;25.25;;;12.80;99.90;;;;;;5064657;28;20414;-76
2021/07/02 05:47:50;;;;;;;48.45;24.33;;;12.70;99.90;;;;;;5061324;28;20074;-76
2021/07/02 05:50:18;;;;;;;36.28;22.20;;;12.80;99.90;;;;;;5039878;28;20115;-76
2021/07/02 05:52:44;;;;;;;43.08;23.88;;;12.90;99.90;;;;;;5061038;28;20067;-76
2021/07/02 05:55:10;;;;;;;43.50;23.00;;;12.80;99.90;;;;;;5048790;28;20117;-77
2021/07/02 05:57:36;;;;;;;42.05;22.92;;;12.80;99.90;;;;;;5064763;28;20025;-76
2021/07/02 06:00:04;;;;;;;45.60;24.75;;;12.80;99.90;;;;;;5061285;28;20028;-76
2021/07/02 06:02:30;;;;;;;46.92;23.65;;;12.80;99.90;;;;;;5064351;28;20123;-76
2021/07/02 06:04:55;;;;;;;50.42;25.27;;;12.80;99.90;;;;;;5049879;28;20021;-76
2021/07/02 06:07:21;;;;;;;44.63;23.63;;;12.90;99.90;;;;;;5036776;28;20033;-76
2021/07/02 06:09:46;;;;;;;48.08;24.08;;;12.90;99.90;;;;;;5068021;28;20040;-75
2021/07/02 06:12:12;;;;;;;42.30;24.00;;;12.90;99.90;;;;;;5036738;28;20449;-76
2021/07/02 06:14:37;;;;;;;43.95;23.45;;;12.90;99.90;;;;;;5070714;28;20099;-75
2021/07/02 06:17:03;;;;;;;49.90;25.02;;;13.00;99.90;;;;;;5065034;28;20060;-76
2021/07/02 06:19:28;;;;;;;48.88;24.20;;;13.00;99.90;;;;;;5050026;28;20108;-75
2021/07/02 06:21:54;;;;;;;41.90;23.10;;;13.00;99.90;;;;;;5063499;28;20017;-73
2021/07/02 06:24:20;;;;;;;38.80;22.75;;;13.10;99.90;;;;;;5060831;28;20466;-76
2021/07/02 06:26:45;;;;;;;43.80;23.75;;;13.00;99.90;;;;;;5056465;28;20493;-76
2021/07/02 06:29:11;;;;;;;50.42;23.63;;;13.00;99.90;;;;;;5053020;28;20064;-75
2021/07/02 06:31:36;;;;;;;42.58;22.95;;;13.00;99.90;;;;;;5036444;28;20031;-75
2021/07/02 06:34:02;;;;;;;41.85;22.65;;;13.00;99.90;;;;;;5067402;28;20025;-76
2021/07/02 06:36:27;;;;;;;38.50;22.90;;;12.90;99.90;;;;;;5063870;28;20031;-76
2021/07/02 06:38:53;;;;;;;44.80;23.33;;;12.90;99.90;;;;;;5052887;28;20025;-75
2021/07/02 06:41:18;;;;;;;41.67;22.33;;;12.90;99.90;;;;;;5063735;28;20087;-75
2021/07/02 06:43:44;;;;;;;33.28;21.25;;;12.90;99.90;;;;;;5060268;28;20032;-75
2021/07/02 06:46:10;;;;;;;42.45;23.63;;;12.90;99.90;;;;;;5046406;28;20486;-76
2021/07/02 06:48:35;;;;;;;37.53;20.60;;;13.00;99.90;;;;;;5049298;28;20111;-75
2021/07/02 06:51:01;;;;;;;38.80;22.38;;;13.00;99.90;;;;;;5044844;28;20367;-76
2021/07/02 06:53:27;;;;;;;41.72;22.25;;;13.00;99.90;;;;;;5071586;28;20020;-75
2021/07/02 06:55:53;;;;;;;31.48;19.92;;;13.10;99.90;;;;;;5044522;28;20025;-76
2021/07/02 06:58:20;;;;;;;37.78;21.42;;;13.10;99.90;;;;;;5042078;28;20032;-76
2021/07/02 07:00:45;;;;;;;39.90;21.58;;;13.10;99.90;;;;;;5073350;28;20052;-75
2021/07/02 07:03:11;;;;;;;30.33;18.08;;;13.20;99.90;;;;;;5042097;28;20471;-75
2021/07/02 07:05:38;;;;;;;29.67;17.40;;;13.20;99.90;;;;;;5063982;28;20130;-76
2021/07/02 07:08:06;;;;;;;32.25;18.77;;;13.20;99.90;;;;;;5066691;28;20020;-76
2021/07/02 07:10:32;;;;;;;33.63;18.88;;;13.20;99.90;;;;;;5062247;28;20108;-78
2021/07/02 07:12:59;;;;;;;28.23;17.67;;;13.00;99.90;;;;;;5060202;28;20104;-76
2021/07/02 07:15:25;;;;;;;29.27;17.95;;;13.20;99.90;;;;;;5063529;28;20390;-76
2021/07/02 07:17:52;;;;;;;31.25;17.80;;;13.20;99.90;;;;;;5065797;28;20385;-75
2021/07/02 07:20:18;;;;;;;21.73;15.27;;;13.10;99.90;;;;;;5061714;28;20025;-76
2021/07/02 07:22:43;;;;;;;23.02;15.40;;;13.00;99.90;;;;;;5057302;28;20017;-76
2021/07/02 07:25:09;;;;;;;22.33;14.85;;;12.90;99.90;;;;;;5039115;28;20021;-76
2021/07/02 07:27:36;;;;;;;21.30;14.70;;;12.90;99.90;;;;;;5069244;28;20513;-75
2021/07/02 07:30:02;;;;;;;23.75;15.02;;;12.90;99.90;;;;;;5053184;28;20049;-75
2021/07/02 07:32:28;;;;;;;20.80;13.88;;;13.00;99.90;;;;;;5036488;28;20087;-76
2021/07/02 07:37:20;;;;;;;19.08;12.80;;;13.10;99.90;;;;;;5069705;28;20041;-76
2021/07/02 07:39:47;;;;;;;21.35;13.68;;;13.20;99.90;;;;;;5054854;28;20028;-76
2021/07/02 07:42:13;;;;;;;26.35;14.80;;;13.20;99.90;;;;;;5054525;28;20533;-76
2021/07/02 07:44:39;;;;;;;21.63;15.48;;;13.20;99.90;;;;;;5054344;28;20117;-76
2021/07/02 07:47:04;;;;;;;21.85;14.38;;;13.30;99.90;;;;;;5059012;28;20020;-76
2021/07/02 07:49:30;;;;;;;21.80;15.48;;;13.40;99.90;;;;;;5072509;28;20017;-77
2021/07/02 07:54:21;;;;;;;23.20;15.52;;;13.20;99.90;;;;;;5073356;28;20017;-78
2021/07/02 07:56:50;;;;;;;22.52;15.45;;;13.30;99.90;;;;;;5040208;28;20143;-75
2021/07/02 07:59:26;;;;;;;16.33;11.73;;;13.30;99.90;;;;;;5062677;28;20504;-76
2021/07/02 08:01:51;;;;;;;20.50;14.20;;;13.30;99.90;;;;;;5067545;28;20020;-77
2021/07/02 08:04:17;;;;;;;18.23;12.05;;;13.30;99.90;;;;;;5045850;28;20028;-77
2021/07/02 08:06:43;;;;;;;16.05;11.25;;;13.30;99.90;;;;;;5040589;28;20489;-77
2021/07/02 08:09:10;;;;;;;18.67;12.40;;;13.20;99.90;;;;;;5071771;28;20608;-77
2021/07/02 08:11:36;;;;;;;17.83;11.63;;;13.30;99.90;;;;;;5054377;28;20410;-77
2021/07/02 08:14:02;;;;;;;15.68;11.32;;;13.40;99.90;;;;;;5060501;28;20021;-76
2021/07/02 08:16:28;;;;;;;15.77;11.63;;;13.40;99.90;;;;;;5057106;28;20020;-77
2021/07/02 08:18:53;;;;;;;15.15;10.60;;;13.50;99.90;;;;;;5060266;28;20025;-75
2021/07/02 08:21:19;;;;;;;16.63;11.23;;;13.60;99.90;;;;;;5039280;28;20555;-77
2021/07/02 08:23:45;;;;;;;20.58;12.43;;;13.60;99.90;;;;;;5060680;28;20471;-77
2021/07/02 08:26:12;;;;;;;18.05;12.73;;;13.50;99.90;;;;;;5069980;28;20032;-77
2021/07/02 08:31:22;;;;;;;24.60;15.07;;;13.60;99.90;;;;;;5060284;28;20035;-77
2021/07/02 08:33:47;;;;;;;22.73;15.00;;;13.60;99.90;;;;;;5058353;28;20037;-76
2021/07/02 08:36:13;;;;;;;22.40;14.82;;;13.70;99.90;;;;;;5045781;28;20028;-77
2021/07/02 08:38:38;;;;;;;25.10;15.40;;;13.70;99.90;;;;;;5065402;28;20029;-76
2021/07/02 08:41:04;;;;;;;23.95;15.95;;;13.90;99.90;;;;;;5041611;28;20044;-76
2021/07/02 08:43:30;;;;;;;27.10;16.40;;;13.90;99.90;;;;;;5053899;28;20505;-76
2021/07/02 08:45:57;;;;;;;28.02;17.92;;;14.00;99.90;;;;;;5064347;28;20021;-76
2021/07/02 08:48:25;;;;;;;27.95;17.10;;;14.00;99.90;;;;;;5034650;28;20025;-76
2021/07/02 08:50:54;;;;;;;25.50;17.35;;;14.00;99.90;;;;;;5064058;28;20478;-75
2021/07/02 08:53:19;;;;;;;28.13;17.83;;;14.00;99.90;;;;;;5065516;28;20024;-76
2021/07/02 08:55:45;;;;;;;29.13;18.80;;;13.90;99.90;;;;;;5059591;28;20036;-76
2021/07/02 08:58:14;;;;;;;27.75;16.98;;;14.00;99.90;;;;;;5040095;28;20487;-76
2021/07/02 09:00:43;;;;;;;27.48;18.45;;;14.00;99.90;;;;;;5063161;28;20032;-76
2021/07/02 09:03:29;;;;;;;27.98;18.48;;;14.00;99.90;;;;;;5065085;28;20032;-76
2021/07/02 09:06:05;;;;;;;28.17;17.40;;;14.00;99.90;;;;;;5063082;28;20074;-76
2021/07/02 09:08:32;;;;;;;27.70;17.65;;;14.10;99.90;;;;;;5058145;28;20024;-75
2021/07/02 09:10:57;;;;;;;28.23;18.88;;;14.00;99.90;;;;;;5040473;28;20059;-76
2021/07/02 09:13:40;;;;;;;22.52;16.25;;;14.20;99.90;;;;;;5064981;28;20032;-76
2021/07/02 09:16:20;;;;;;;26.83;17.50;;;14.20;99.90;;;;;;5046873;28;20031;-76
2021/07/02 09:18:46;;;;;;;25.77;18.42;;;14.10;99.90;;;;;;5062414;28;20020;-75
2021/07/02 09:21:22;;;;;;;31.35;19.60;;;14.20;99.90;;;;;;5057862;28;20031;-76
2021/07/02 09:23:48;;;;;;;23.05;17.55;;;14.20;99.90;;;;;;5059371;28;20025;-75
2021/07/02 09:26:32;;;;;;;24.55;16.20;;;14.30;99.90;;;;;;5077563;28;20059;-75
2021/07/02 09:29:21;;;;;;;26.55;18.48;;;14.30;99.90;;;;;;5058125;28;20021;-75
2021/07/02 09:31:56;;;;;;;27.40;19.08;;;14.30;99.90;;;;;;5045890;28;20486;-76
2021/07/02 09:34:22;;;;;;;23.70;17.52;;;14.50;99.90;;;;;;5068349;28;20464;-75
2021/07/02 09:36:49;;;;;;;27.30;18.23;;;14.40;99.90;;;;;;5049954;28;20028;-76
2021/07/02 09:39:28;;;;;;;27.83;19.13;;;14.00;99.90;;;;;;5061729;28;20032;-76
2021/07/02 09:41:54;;;;;;;27.13;18.52;;;14.20;99.90;;;;;;5061641;28;20021;-75
2021/07/02 09:44:19;;;;;;;29.65;18.98;;;14.10;99.90;;;;;;5075163;28;20055;-76
2021/07/02 09:46:45;;;;;;;29.25;18.67;;;14.20;99.90;;;;;;5061536;28;20108;-76
2021/07/02 09:49:26;;;;;;;27.35;17.85;;;14.40;99.90;;;;;;5066824;28;20029;-76
2021/07/02 09:52:05;;;;;;;29.67;19.42;;;14.50;99.90;;;;;;5068402;28;20128;-77
2021/07/02 09:54:31;;;;;;;27.05;17.88;;;14.70;99.90;;;;;;5066491;28;20064;-76
2021/07/02 09:57:17;;;;;;;24.15;18.15;;;14.70;99.90;;;;;;5061381;28;20071;-75
2021/07/02 09:59:43;;;;;;;28.38;18.48;;;14.80;99.90;;;;;;5061359;28;20155;-76
2021/07/02 10:02:18;;;;;;;26.98;18.45;;;14.90;99.90;;;;;;5066948;28;20108;-75
2021/07/02 10:05:00;;;;;;;24.15;17.40;;;15.00;99.90;;;;;;5067902;28;20029;-75
2021/07/02 10:07:27;;;;;;;22.42;16.13;;;15.10;99.90;;;;;;5066081;28;20036;-75
2021/07/02 10:09:52;;;;;;;24.25;16.52;;;15.20;99.90;;;;;;5043399;28;20025;-76
2021/07/02 10:12:23;;;;;;;23.20;16.67;;;14.90;99.90;;;;;;5045322;28;20029;-75
2021/07/02 10:14:50;;;;;;;21.63;15.27;;;15.10;99.90;;;;;;5067975;28;20387;-76
2021/07/02 10:17:19;;;;;;;24.55;15.63;;;15.40;99.90;;;;;;5066357;28;20085;-75
2021/07/02 10:19:48;;;;;;;19.85;13.65;;;15.50;99.90;;;;;;5061001;28;20031;-75
2021/07/02 10:22:20;;;;;;;20.83;15.25;;;15.70;99.90;;;;;;5043482;28;20029;-75
2021/07/02 10:24:51;;;;;;;21.10;14.45;;;15.90;99.90;;;;;;5061285;28;20029;-76
2021/07/02 10:27:17;;;;;;;19.88;13.70;;;15.90;99.90;;;;;;5073969;28;20039;-75
2021/07/02 10:29:46;;;;;;;20.17;13.38;;;15.90;99.90;;;;;;5066660;28;20426;-76
2021/07/02 10:32:12;;;;;;;18.10;13.65;;;15.50;99.90;;;;;;5049544;28;20444;-77
2021/07/02 10:34:39;;;;;;;22.08;14.02;;;15.90;99.90;;;;;;5044039;28;20082;-77
2021/07/02 10:37:05;;;;;;;18.35;13.52;;;16.10;99.90;;;;;;5060681;28;20028;-78
2021/07/02 10:39:33;;;;;;;21.20;13.57;;;15.90;99.90;;;;;;5055983;28;20031;-76
2021/07/02 10:42:13;;;;;;;20.55;14.10;;;16.10;99.90;;;;;;5060195;28;20662;-76
2021/07/02 10:44:59;;;;;;;21.15;13.35;;;16.00;99.90;;;;;;5063222;28;20028;-76
2021/07/02 10:47:25;;;;;;;;;;;16.30;99.90;;;;;;5056721;28;20013;-77
2021/07/02 10:49:53;;;;;;;18.63;11.93;;;16.50;99.90;;;;;;5060526;28;19955;-76
2021/07/02 10:52:22;;;;;;;18.25;12.75;;;16.90;99.90;;;;;;5066748;28;20025;-77
2021/07/02 10:54:53;;;;;;;19.27;13.50;;;16.90;99.90;;;;;;5067141;28;20025;-77
2021/07/02 10:57:21;;;;;;;17.52;13.48;;;16.90;99.90;;;;;;5061801;28;20685;-76
2021/07/02 10:59:50;;;;;;;19.10;13.30;;;17.10;99.90;;;;;;5042588;28;20028;-79
2021/07/02 11:02:20;;;;;;;18.40;12.20;;;17.30;99.90;;;;;;5049313;28;20234;-78
2021/07/02 11:04:50;;;;;;;17.92;12.50;;;17.30;99.90;;;;;;5049780;28;20024;-77
2021/07/02 11:07:19;;;;;;;20.13;14.27;;;17.00;99.90;;;;;;5064927;28;20017;-77
2021/07/02 11:09:57;;;;;;;19.20;12.90;;;17.00;99.90;;;;;;5043735;28;20031;-77
2021/07/02 11:12:32;;;;;;;19.02;13.80;;;17.30;99.90;;;;;;5044471;28;20115;-77
2021/07/02 11:15:01;;;;;;;21.23;14.23;;;17.10;99.90;;;;;;5050108;28;20016;-78
2021/07/02 11:17:28;;;;;;;17.73;13.68;;;17.00;99.90;;;;;;5067977;28;20546;-78
2021/07/02 11:20:21;;;;;;;20.90;14.02;;;17.20;99.90;;;;;;5061721;28;20017;-77
2021/07/02 11:22:49;;;;;;;19.98;13.32;;;17.20;99.90;;;;;;5060479;28;20013;-77
2021/07/02 11:25:18;;;;;;;20.38;14.18;;;17.20;99.90;;;;;;5068583;28;20177;-77
2021/07/02 11:27:52;;;;;;;23.10;14.13;;;17.40;99.90;;;;;;5055982;28;20020;-77
2021/07/02 11:30:24;;;;;;;19.83;13.60;;;17.70;99.90;;;;;;5061083;28;20028;-77
2021/07/02 11:32:51;;;;;;;20.00;13.95;;;17.90;99.90;;;;;;5038502;28;20537;-77
2021/07/02 11:35:31;;;;;;;21.67;13.90;;;17.60;99.90;;;;;;5066427;28;20043;-77
2021/07/02 11:38:07;;;;;;;18.55;13.07;;;17.50;99.90;;;;;;5061881;28;20068;-77
2021/07/02 11:40:44;;;;;;;19.42;13.70;;;17.40;99.90;;;;;;5069703;28;20024;-77
2021/07/02 11:43:11;;;;;;;16.77;13.23;;;17.60;99.90;;;;;;5064713;28;20032;-77
2021/07/02 11:45:48;;;;;;;20.98;13.07;;;17.50;99.90;;;;;;5059250;28;20051;-77
2021/07/02 11:48:23;;;;;;;19.42;14.10;;;17.50;99.90;;;;;;5042451;28;20032;-77
2021/07/02 11:50:51;;;;;;;18.00;13.80;;;17.30;99.90;;;;;;5042404;28;20039;-77
2021/07/02 11:53:33;;;;;;;18.77;13.68;;;17.40;99.90;;;;;;5040848;28;20029;-77
2021/07/02 11:56:09;;;;;;;17.80;12.52;;;17.40;99.90;;;;;;5062771;28;20094;-77
2021/07/02 11:58:37;;;;;;;18.50;12.70;;;17.60;99.90;;;;;;5066356;28;20083;-77
2021/07/02 12:01:12;;;;;;;19.30;13.80;;;17.80;99.90;;;;;;5046427;28;20517;-77
2021/07/02 12:03:58;;;;;;;17.58;12.77;;;17.70;99.90;;;;;;5059275;28;20099;-77
2021/07/02 12:06:24;;;;;;;23.42;13.35;;;17.70;99.90;;;;;;5058931;28;20029;-77
2021/07/02 12:08:56;;;;;;;19.83;13.63;;;17.70;99.90;;;;;;5072660;28;20021;-77
2021/07/02 12:11:27;;;;;;;22.17;14.10;;;17.40;99.90;;;;;;5041294;28;20025;-77
2021/07/02 12:13:52;;;;;;;17.20;13.07;;;17.70;99.90;;;;;;5063080;28;20035;-77
2021/07/02 12:16:19;;;;;;;16.48;12.52;;;17.70;99.90;;;;;;5066074;28;20100;-77
2021/07/02 12:18:51;;;;;;;15.27;13.32;;;17.80;99.90;;;;;;5052514;28;20059;-77
2021/07/02 12:21:19;;;;;;;19.20;13.02;;;18.00;99.90;;;;;;5069798;28;20012;-77
2021/07/02 12:23:45;;;;;;;16.05;12.50;;;17.90;99.90;;;;;;5061547;28;20059;-77
2021/07/02 12:26:19;;;;;;;17.83;12.63;;;18.10;99.90;;;;;;5069708;28;20068;-78
2021/07/02 12:29:05;;;;;;;18.83;12.98;;;18.10;99.90;;;;;;5072146;28;20100;-76
2021/07/02 12:31:42;;;;;;;15.70;12.07;;;18.40;99.90;;;;;;5061401;28;20051;-77
2021/07/02 12:34:17;;;;;;;16.25;12.18;;;18.30;99.90;;;;;;5040612;28;20025;-76
2021/07/02 12:36:59;;;;;;;15.77;12.32;;;18.30;99.90;;;;;;5041914;28;20063;-77
2021/07/02 12:39:30;;;;;;;17.13;13.00;;;18.30;99.90;;;;;;5034030;28;20025;-76